Terminal Aerodrome Forecast
Issued by NWS

Home | Current Version | Previous Version | Text Only | Print | Product List | Glossary On
Versions: 1 2 3 4 5 6 7 8 9 10 11 12 13
540
FTPA31 PHFO 271740
TAFHJR
TAF
PHJR 271740Z 2718/2818 04005KT P6SM FEW045 BKN250
     FM272200 12009KT P6SM VCSH SCT020 BKN035 BKN200
     FM280400 VRB03KT P6SM SCT025 BKN045 BKN180=

USA.gov is the U.S. government's official web portal to all federal, state and local government web resources and services.